Warning: Javascript must be enabled to use all the features on this page!


Page Loading - Please Wait...

Click to hideNews Bulletins

Peak Streamflow for the Nation

USGS 02228500 NORTH PRONG ST. MARYS RIVER AT MONIAC, GA

Baker County, Florida
Hydrologic Unit Code 03070204
Latitude  30°31'03", Longitude  82°13'50" NAD27
Drainage area 160  square miles
Output formats
Table
Graph
Tab-separated file
peakfq (watstore) format
Reselect output format
Water
Year
Date Gage
Height
(feet)
Stream-
flow
(cfs)
1922 1922-09-19 5.905 3701
1923 1923-01-08 7.005 6701
1928 1928-09-19   6,0601,2
1929 1929-03-17 9.355 1,6101
1933 1933-02-09 9.89 1,770
1951 1950-10-22 16.20 4,050
1952 1952-03-14 12.36 1,330
1953 1953-09-06   6421
1954 1953-10-01 14.27 2,140
1955 1955-09-08 9.79 443
1956 1956-05-08 9.05 312
1957 1957-06-11 15.26 3,110
1958 1958-04-11 13.38 1,590
1959 1959-03-18 14.80 2,650
1960 1960-03-19 13.00 1,410
1961 1961-08-31 10.76 668
1962 1962-04-02 14.88 2,730
1963 1963-01-14 11.18 729
1964 1964-09-13 18.41 4,590
1965 1964-12-27 14.005 1,7002
1966 1966-08-09 14.20 2,020
1967 1967-08-30 12.992 1,500
1968 1968-07-26 10.05 480
1969 1969-03-19 11.18 764
1970 1970-03-30 17.57 4,080
1971 1971-08-17 13.49 1,770
1972 1972-06-21 12.60 1,320
1973 1973-04-05 22.98 11,600
1974 1974-09-09 11.78 984
1975 1975-04-15 14.46 2,180
1976 1976-09-26 11.97 1,040
1977 1977-08-22 12.77 1,340
1978 1978-01-20 11.66 1,010
1979 1979-09-16 14.43 2,160
1980 1980-03-11 11.91 1,080
1981 1981-03-06 11.06 828
1982 1982-04-12 11.63 894
1983 1983-03-18 13.51 1,800
1984 1984-03-29 15.43 2,750
1985 1985-09-02 11.23 873
1986 1986-02-11 15.00 2,300
1987 1987-01-23 12.64 1,180
1988 1988-02-21 14.52 2,020
1989 1989-09-06 8.68 251
1991 1991-08-06 13.58 1,580
1992 1992-08-20 10.79 619
1993 1992-10-05 11.62 842
1994 1994-01-31 13.26 1,430
1995 1994-10-12 13.30 1,450
1996 1996-03-19 10.34 519
1997 1996-10-09 16.19 3,040
1998 1998-02-18 17.03 3,730
1999 1998-10-05 11.69 863
2000 1999-10-01 9.77 388
2001 2001-03-21 8.71 255
2002 2002-03-04 10.44 540
2003 2003-03-10 14.10 1,820
2004 2004-09-09 17.78 4,410
2007 2007-08-04 13.26 1,430
2008 2008-08-24 19.15 5,740
2009 2009-04-04 14.47 2,010
2010 2010-02-14 11.06 686
2011 2011-02-11 7.17 110
2012 2012-06-27 18.69 5,270
2013 2013-02-27 9.31 335
2014 2014-09-09 15.16 2,390
2015 2014-10-01 12.24 1,040
2016 2016-02-08 10.16 476
2017 2017-09-13 17.51 4,300
2018 2018-07-02 11.57 840
2019 2018-12-16 10.79 622
2020 2020-08-13 12.44 1,040
2021 2021-08-07 15.53 2,680
2022 2022-04-18 13.00 1,320
?
  Peak Gage-Height Qualification Codes.
?
  Peak Streamflow Qualification Codes.